sensor_id;sensor_type;location;lat;lon;timestamp;P1;durP1;ratioP1;P2;durP2;ratioP2
41546;SDS011;27271;45.412;10.852;2022-10-30T00:03:15;13.30;;;6.32;;
41546;SDS011;27271;45.412;10.852;2022-10-30T00:06:38;11.48;;;5.97;;
41546;SDS011;27271;45.412;10.852;2022-10-30T00:10:06;15.02;;;6.53;;
41546;SDS011;27271;45.412;10.852;2022-10-30T00:13:28;13.25;;;5.72;;
41546;SDS011;27271;45.412;10.852;2022-10-30T00:16:51;13.43;;;5.80;;
41546;SDS011;27271;45.412;10.852;2022-10-30T00:20:13;10.80;;;6.03;;
41546;SDS011;27271;45.412;10.852;2022-10-30T00:23:37;14.02;;;5.97;;
41546;SDS011;27271;45.412;10.852;2022-10-30T00:27:03;13.48;;;6.72;;
41546;SDS011;27271;45.412;10.852;2022-10-30T00:30:32;16.10;;;6.57;;
41546;SDS011;27271;45.412;10.852;2022-10-30T00:33:55;15.85;;;6.63;;
41546;SDS011;27271;45.412;10.852;2022-10-30T00:37:21;13.20;;;6.60;;
41546;SDS011;27271;45.412;10.852;2022-10-30T00:40:44;18.02;;;7.10;;
41546;SDS011;27271;45.412;10.852;2022-10-30T00:48:13;12.48;;;5.95;;
41546;SDS011;27271;45.412;10.852;2022-10-30T00:51:37;15.13;;;7.72;;
41546;SDS011;27271;45.412;10.852;2022-10-30T00:55:04;16.40;;;7.68;;
41546;SDS011;27271;45.412;10.852;2022-10-30T00:58:35;16.05;;;8.50;;
41546;SDS011;27271;45.412;10.852;2022-10-30T01:02:02;19.10;;;7.43;;
41546;SDS011;27271;45.412;10.852;2022-10-30T01:05:26;20.70;;;7.72;;
41546;SDS011;27271;45.412;10.852;2022-10-30T01:08:50;13.85;;;8.00;;
41546;SDS011;27271;45.412;10.852;2022-10-30T01:12:20;16.13;;;8.27;;
41546;SDS011;27271;45.412;10.852;2022-10-30T01:15:49;18.33;;;8.85;;
41546;SDS011;27271;45.412;10.852;2022-10-30T01:19:55;22.98;;;10.25;;
41546;SDS011;27271;45.412;10.852;2022-10-30T01:23:32;20.58;;;8.90;;
41546;SDS011;27271;45.412;10.852;2022-10-30T01:34:37;15.00;;;8.20;;
41546;SDS011;27271;45.412;10.852;2022-10-30T01:41:46;11.70;;;6.38;;
41546;SDS011;27271;45.412;10.852;2022-10-30T01:45:09;16.90;;;8.23;;
41546;SDS011;27271;45.412;10.852;2022-10-30T01:49:22;18.48;;;7.53;;
41546;SDS011;27271;45.412;10.852;2022-10-30T02:00:02;20.08;;;8.95;;
41546;SDS011;27271;45.412;10.852;2022-10-30T02:03:39;20.33;;;8.88;;
41546;SDS011;27271;45.412;10.852;2022-10-30T02:07:06;20.30;;;9.43;;
41546;SDS011;27271;45.412;10.852;2022-10-30T02:10:35;20.42;;;10.07;;
41546;SDS011;27271;45.412;10.852;2022-10-30T02:14:00;21.70;;;8.52;;
41546;SDS011;27271;45.412;10.852;2022-10-30T02:17:25;18.42;;;10.27;;
41546;SDS011;27271;45.412;10.852;2022-10-30T02:20:52;21.35;;;9.07;;
41546;SDS011;27271;45.412;10.852;2022-10-30T02:24:15;22.92;;;9.30;;
41546;SDS011;27271;45.412;10.852;2022-10-30T02:27:39;18.90;;;9.00;;
41546;SDS011;27271;45.412;10.852;2022-10-30T02:31:04;29.58;;;11.02;;
41546;SDS011;27271;45.412;10.852;2022-10-30T02:34:28;25.33;;;10.07;;
41546;SDS011;27271;45.412;10.852;2022-10-30T02:37:51;22.67;;;10.30;;
41546;SDS011;27271;45.412;10.852;2022-10-30T02:41:15;27.05;;;11.55;;
41546;SDS011;27271;45.412;10.852;2022-10-30T02:44:38;27.15;;;12.60;;
41546;SDS011;27271;45.412;10.852;2022-10-30T02:48:01;23.15;;;11.20;;
41546;SDS011;27271;45.412;10.852;2022-10-30T02:51:25;28.45;;;12.18;;
41546;SDS011;27271;45.412;10.852;2022-10-30T02:54:48;26.33;;;11.70;;
41546;SDS011;27271;45.412;10.852;2022-10-30T02:58:10;24.33;;;10.98;;
41546;SDS011;27271;45.412;10.852;2022-10-30T03:01:33;23.20;;;10.82;;
41546;SDS011;27271;45.412;10.852;2022-10-30T03:04:57;26.98;;;11.90;;
41546;SDS011;27271;45.412;10.852;2022-10-30T03:08:20;23.98;;;12.27;;
41546;SDS011;27271;45.412;10.852;2022-10-30T03:11:42;23.52;;;12.48;;
41546;SDS011;27271;45.412;10.852;2022-10-30T03:15:06;33.40;;;13.20;;
41546;SDS011;27271;45.412;10.852;2022-10-30T03:18:31;24.42;;;11.68;;
41546;SDS011;27271;45.412;10.852;2022-10-30T03:22:00;26.92;;;12.15;;
41546;SDS011;27271;45.412;10.852;2022-10-30T03:25:23;28.08;;;12.48;;
41546;SDS011;27271;45.412;10.852;2022-10-30T03:28:49;35.50;;;12.45;;
41546;SDS011;27271;45.412;10.852;2022-10-30T03:32:12;24.58;;;10.75;;
41546;SDS011;27271;45.412;10.852;2022-10-30T03:35:44;30.65;;;12.23;;
41546;SDS011;27271;45.412;10.852;2022-10-30T03:39:07;25.10;;;12.25;;
41546;SDS011;27271;45.412;10.852;2022-10-30T03:42:31;26.65;;;12.05;;
41546;SDS011;27271;45.412;10.852;2022-10-30T03:45:54;26.85;;;12.85;;
41546;SDS011;27271;45.412;10.852;2022-10-30T03:49:17;29.05;;;12.23;;
41546;SDS011;27271;45.412;10.852;2022-10-30T03:52:39;26.52;;;12.52;;
41546;SDS011;27271;45.412;10.852;2022-10-30T03:56:04;29.67;;;13.23;;
41546;SDS011;27271;45.412;10.852;2022-10-30T03:59:36;30.83;;;11.63;;
41546;SDS011;27271;45.412;10.852;2022-10-30T04:03:23;33.03;;;11.70;;
41546;SDS011;27271;45.412;10.852;2022-10-30T04:06:46;27.38;;;11.73;;
41546;SDS011;27271;45.412;10.852;2022-10-30T04:10:09;21.80;;;10.95;;
41546;SDS011;27271;45.412;10.852;2022-10-30T04:13:32;21.90;;;9.68;;
41546;SDS011;27271;45.412;10.852;2022-10-30T04:16:54;21.17;;;9.30;;
41546;SDS011;27271;45.412;10.852;2022-10-30T04:20:17;20.85;;;8.48;;
41546;SDS011;27271;45.412;10.852;2022-10-30T04:23:40;17.90;;;7.93;;
41546;SDS011;27271;45.412;10.852;2022-10-30T04:27:03;17.10;;;7.50;;
41546;SDS011;27271;45.412;10.852;2022-10-30T04:30:26;17.60;;;7.07;;
41546;SDS011;27271;45.412;10.852;2022-10-30T04:33:48;13.85;;;6.45;;
41546;SDS011;27271;45.412;10.852;2022-10-30T04:37:10;12.70;;;6.47;;
41546;SDS011;27271;45.412;10.852;2022-10-30T04:40:34;17.55;;;6.38;;
41546;SDS011;27271;45.412;10.852;2022-10-30T04:43:59;16.45;;;6.38;;
41546;SDS011;27271;45.412;10.852;2022-10-30T04:47:24;14.95;;;7.07;;
41546;SDS011;27271;45.412;10.852;2022-10-30T04:50:46;18.00;;;7.10;;
41546;SDS011;27271;45.412;10.852;2022-10-30T04:54:16;15.07;;;7.07;;
41546;SDS011;27271;45.412;10.852;2022-10-30T04:57:38;14.43;;;7.20;;
41546;SDS011;27271;45.412;10.852;2022-10-30T05:01:01;20.25;;;8.50;;
41546;SDS011;27271;45.412;10.852;2022-10-30T05:04:27;15.30;;;7.45;;
41546;SDS011;27271;45.412;10.852;2022-10-30T05:07:50;18.52;;;6.13;;
41546;SDS011;27271;45.412;10.852;2022-10-30T05:11:12;15.75;;;6.28;;
41546;SDS011;27271;45.412;10.852;2022-10-30T05:14:34;13.15;;;5.80;;
41546;SDS011;27271;45.412;10.852;2022-10-30T05:17:56;12.05;;;4.75;;
41546;SDS011;27271;45.412;10.852;2022-10-30T05:21:18;9.63;;;6.35;;
41546;SDS011;27271;45.412;10.852;2022-10-30T05:24:40;15.00;;;6.50;;
41546;SDS011;27271;45.412;10.852;2022-10-30T05:28:04;13.65;;;6.75;;
41546;SDS011;27271;45.412;10.852;2022-10-30T05:31:37;17.60;;;5.70;;
41546;SDS011;27271;45.412;10.852;2022-10-30T05:35:17;13.88;;;5.68;;
41546;SDS011;27271;45.412;10.852;2022-10-30T05:38:40;12.35;;;5.35;;
41546;SDS011;27271;45.412;10.852;2022-10-30T05:42:06;12.82;;;5.82;;
41546;SDS011;27271;45.412;10.852;2022-10-30T05:45:36;21.83;;;6.13;;
41546;SDS011;27271;45.412;10.852;2022-10-30T05:49:01;12.15;;;5.93;;
41546;SDS011;27271;45.412;10.852;2022-10-30T05:52:23;12.18;;;4.95;;
41546;SDS011;27271;45.412;10.852;2022-10-30T05:55:45;13.82;;;6.10;;
41546;SDS011;27271;45.412;10.852;2022-10-30T05:59:13;8.30;;;5.13;;
41546;SDS011;27271;45.412;10.852;2022-10-30T06:02:37;12.85;;;5.47;;
41546;SDS011;27271;45.412;10.852;2022-10-30T06:06:00;9.32;;;5.90;;
41546;SDS011;27271;45.412;10.852;2022-10-30T06:09:22;12.10;;;6.03;;
41546;SDS011;27271;45.412;10.852;2022-10-30T06:13:05;13.00;;;6.15;;
41546;SDS011;27271;45.412;10.852;2022-10-30T06:16:50;12.40;;;6.15;;
41546;SDS011;27271;45.412;10.852;2022-10-30T06:20:38;9.65;;;5.03;;
41546;SDS011;27271;45.412;10.852;2022-10-30T06:24:12;14.98;;;5.90;;
41546;SDS011;27271;45.412;10.852;2022-10-30T06:27:41;12.05;;;5.53;;
41546;SDS011;27271;45.412;10.852;2022-10-30T06:31:03;13.82;;;5.72;;
41546;SDS011;27271;45.412;10.852;2022-10-30T06:34:26;10.02;;;5.55;;
41546;SDS011;27271;45.412;10.852;2022-10-30T06:37:48;11.73;;;6.10;;
41546;SDS011;27271;45.412;10.852;2022-10-30T06:41:11;14.48;;;6.25;;
41546;SDS011;27271;45.412;10.852;2022-10-30T06:44:54;14.30;;;5.63;;
41546;SDS011;27271;45.412;10.852;2022-10-30T06:48:16;14.63;;;5.93;;
41546;SDS011;27271;45.412;10.852;2022-10-30T06:51:44;14.82;;;7.32;;
41546;SDS011;27271;45.412;10.852;2022-10-30T06:55:06;13.57;;;7.38;;
41546;SDS011;27271;45.412;10.852;2022-10-30T06:58:59;13.88;;;6.90;;
41546;SDS011;27271;45.412;10.852;2022-10-30T07:02:27;14.20;;;6.43;;
41546;SDS011;27271;45.412;10.852;2022-10-30T07:05:55;11.13;;;4.97;;
41546;SDS011;27271;45.412;10.852;2022-10-30T07:09:18;9.40;;;4.72;;
41546;SDS011;27271;45.412;10.852;2022-10-30T07:12:41;11.45;;;4.88;;
41546;SDS011;27271;45.412;10.852;2022-10-30T07:16:11;7.55;;;4.50;;
41546;SDS011;27271;45.412;10.852;2022-10-30T07:19:36;12.48;;;5.22;;
41546;SDS011;27271;45.412;10.852;2022-10-30T07:22:59;9.13;;;5.20;;
41546;SDS011;27271;45.412;10.852;2022-10-30T07:26:22;11.52;;;4.75;;
41546;SDS011;27271;45.412;10.852;2022-10-30T07:29:47;10.55;;;5.07;;
41546;SDS011;27271;45.412;10.852;2022-10-30T07:33:14;13.93;;;6.13;;
41546;SDS011;27271;45.412;10.852;2022-10-30T07:36:50;13.38;;;6.80;;
41546;SDS011;27271;45.412;10.852;2022-10-30T07:40:30;16.50;;;7.75;;
41546;SDS011;27271;45.412;10.852;2022-10-30T07:44:22;19.30;;;10.18;;
41546;SDS011;27271;45.412;10.852;2022-10-30T07:48:05;19.40;;;9.43;;
41546;SDS011;27271;45.412;10.852;2022-10-30T07:51:38;14.63;;;7.82;;
41546;SDS011;27271;45.412;10.852;2022-10-30T07:55:03;15.20;;;8.52;;
41546;SDS011;27271;45.412;10.852;2022-10-30T07:58:41;17.20;;;9.00;;
41546;SDS011;27271;45.412;10.852;2022-10-30T08:02:29;21.17;;;8.65;;
41546;SDS011;27271;45.412;10.852;2022-10-30T08:06:06;17.33;;;7.60;;
41546;SDS011;27271;45.412;10.852;2022-10-30T08:09:31;17.17;;;8.13;;
41546;SDS011;27271;45.412;10.852;2022-10-30T08:12:55;18.58;;;9.23;;
41546;SDS011;27271;45.412;10.852;2022-10-30T08:16:17;18.73;;;9.35;;
41546;SDS011;27271;45.412;10.852;2022-10-30T08:19:39;19.88;;;10.48;;
41546;SDS011;27271;45.412;10.852;2022-10-30T08:23:02;26.35;;;11.70;;
41546;SDS011;27271;45.412;10.852;2022-10-30T08:26:26;19.25;;;11.23;;
41546;SDS011;27271;45.412;10.852;2022-10-30T08:29:48;21.00;;;12.02;;
41546;SDS011;27271;45.412;10.852;2022-10-30T08:33:11;21.92;;;12.68;;
41546;SDS011;27271;45.412;10.852;2022-10-30T08:36:55;21.40;;;11.85;;
41546;SDS011;27271;45.412;10.852;2022-10-30T08:40:18;22.63;;;11.80;;
41546;SDS011;27271;45.412;10.852;2022-10-30T08:43:50;26.67;;;13.77;;
41546;SDS011;27271;45.412;10.852;2022-10-30T08:47:12;22.23;;;11.55;;
41546;SDS011;27271;45.412;10.852;2022-10-30T08:50:35;23.05;;;12.75;;
41546;SDS011;27271;45.412;10.852;2022-10-30T08:53:58;26.88;;;12.40;;
41546;SDS011;27271;45.412;10.852;2022-10-30T08:57:21;23.33;;;12.18;;
41546;SDS011;27271;45.412;10.852;2022-10-30T09:00:44;22.52;;;12.30;;
41546;SDS011;27271;45.412;10.852;2022-10-30T09:04:06;23.77;;;13.55;;
41546;SDS011;27271;45.412;10.852;2022-10-30T09:07:48;20.67;;;12.65;;
41546;SDS011;27271;45.412;10.852;2022-10-30T09:11:34;23.35;;;12.07;;
41546;SDS011;27271;45.412;10.852;2022-10-30T09:14:57;20.52;;;12.43;;
41546;SDS011;27271;45.412;10.852;2022-10-30T09:18:19;23.13;;;12.93;;
41546;SDS011;27271;45.412;10.852;2022-10-30T09:21:41;24.35;;;12.43;;
41546;SDS011;27271;45.412;10.852;2022-10-30T09:25:03;26.88;;;11.98;;
41546;SDS011;27271;45.412;10.852;2022-10-30T09:28:59;26.23;;;13.13;;
41546;SDS011;27271;45.412;10.852;2022-10-30T09:32:42;24.85;;;12.95;;
41546;SDS011;27271;45.412;10.852;2022-10-30T09:36:09;27.58;;;13.75;;
41546;SDS011;27271;45.412;10.852;2022-10-30T09:39:31;27.10;;;13.23;;
41546;SDS011;27271;45.412;10.852;2022-10-30T09:42:55;24.58;;;12.13;;
41546;SDS011;27271;45.412;10.852;2022-10-30T10:05:42;24.77;;;13.00;;
41546;SDS011;27271;45.412;10.852;2022-10-30T10:09:24;23.10;;;12.43;;
41546;SDS011;27271;45.412;10.852;2022-10-30T10:13:02;23.38;;;12.48;;
41546;SDS011;27271;45.412;10.852;2022-10-30T10:16:32;24.20;;;10.68;;
41546;SDS011;27271;45.412;10.852;2022-10-30T10:19:57;23.30;;;12.55;;
41546;SDS011;27271;45.412;10.852;2022-10-30T10:23:34;23.35;;;12.35;;
41546;SDS011;27271;45.412;10.852;2022-10-30T10:27:27;22.30;;;11.40;;
41546;SDS011;27271;45.412;10.852;2022-10-30T10:45:38;19.87;;;10.20;;
41546;SDS011;27271;45.412;10.852;2022-10-30T10:49:22;18.58;;;9.15;;
41546;SDS011;27271;45.412;10.852;2022-10-30T10:53:09;19.52;;;8.80;;
41546;SDS011;27271;45.412;10.852;2022-10-30T10:56:55;18.67;;;10.05;;
41546;SDS011;27271;45.412;10.852;2022-10-30T11:00:20;20.55;;;10.13;;
41546;SDS011;27271;45.412;10.852;2022-10-30T11:10:41;21.20;;;10.93;;
41546;SDS011;27271;45.412;10.852;2022-10-30T11:14:08;20.98;;;10.13;;
41546;SDS011;27271;45.412;10.852;2022-10-30T11:17:40;19.63;;;10.10;;
41546;SDS011;27271;45.412;10.852;2022-10-30T11:21:18;17.05;;;9.07;;
41546;SDS011;27271;45.412;10.852;2022-10-30T11:24:43;16.80;;;9.45;;
41546;SDS011;27271;45.412;10.852;2022-10-30T11:28:07;18.58;;;10.23;;
41546;SDS011;27271;45.412;10.852;2022-10-30T11:31:59;20.58;;;9.23;;
41546;SDS011;27271;45.412;10.852;2022-10-30T11:35:25;15.70;;;8.77;;
41546;SDS011;27271;45.412;10.852;2022-10-30T11:38:47;15.15;;;8.13;;
41546;SDS011;27271;45.412;10.852;2022-10-30T11:42:13;14.82;;;7.32;;
41546;SDS011;27271;45.412;10.852;2022-10-30T11:45:39;16.70;;;8.48;;
41546;SDS011;27271;45.412;10.852;2022-10-30T11:49:03;13.45;;;7.18;;
41546;SDS011;27271;45.412;10.852;2022-10-30T11:52:25;17.80;;;7.80;;
41546;SDS011;27271;45.412;10.852;2022-10-30T11:55:48;14.73;;;8.20;;
41546;SDS011;27271;45.412;10.852;2022-10-30T11:59:13;17.92;;;8.35;;
41546;SDS011;27271;45.412;10.852;2022-10-30T12:02:41;12.82;;;6.88;;
41546;SDS011;27271;45.412;10.852;2022-10-30T12:09:49;11.77;;;7.68;;
41546;SDS011;27271;45.412;10.852;2022-10-30T12:13:15;17.73;;;8.60;;
41546;SDS011;27271;45.412;10.852;2022-10-30T12:16:42;15.25;;;7.68;;
41546;SDS011;27271;45.412;10.852;2022-10-30T12:20:11;15.18;;;8.40;;
41546;SDS011;27271;45.412;10.852;2022-10-30T12:23:35;12.80;;;6.65;;
41546;SDS011;27271;45.412;10.852;2022-10-30T12:27:02;12.82;;;6.93;;
41546;SDS011;27271;45.412;10.852;2022-10-30T12:30:37;10.05;;;5.18;;
41546;SDS011;27271;45.412;10.852;2022-10-30T12:37:56;5.57;;;2.40;;
41546;SDS011;27271;45.412;10.852;2022-10-30T12:41:42;8.45;;;2.42;;
41546;SDS011;27271;45.412;10.852;2022-10-30T12:45:12;8.02;;;2.90;;
41546;SDS011;27271;45.412;10.852;2022-10-30T12:48:49;4.93;;;2.50;;
41546;SDS011;27271;45.412;10.852;2022-10-30T12:55:59;5.28;;;2.80;;
41546;SDS011;27271;45.412;10.852;2022-10-30T12:59:33;5.63;;;3.15;;
41546;SDS011;27271;45.412;10.852;2022-10-30T13:07:18;7.78;;;2.38;;
41546;SDS011;27271;45.412;10.852;2022-10-30T13:14:39;8.18;;;2.45;;
41546;SDS011;27271;45.412;10.852;2022-10-30T13:18:22;4.97;;;2.63;;
41546;SDS011;27271;45.412;10.852;2022-10-30T13:21:48;5.32;;;2.17;;
41546;SDS011;27271;45.412;10.852;2022-10-30T13:25:35;6.10;;;2.78;;
41546;SDS011;27271;45.412;10.852;2022-10-30T13:36:49;5.53;;;3.20;;
41546;SDS011;27271;45.412;10.852;2022-10-30T13:47:54;6.55;;;3.10;;
41546;SDS011;27271;45.412;10.852;2022-10-30T13:51:42;8.05;;;3.03;;
41546;SDS011;27271;45.412;10.852;2022-10-30T13:55:26;5.57;;;2.70;;
41546;SDS011;27271;45.412;10.852;2022-10-30T13:59:03;7.47;;;3.40;;
41546;SDS011;27271;45.412;10.852;2022-10-30T14:02:41;10.63;;;3.75;;
41546;SDS011;27271;45.412;10.852;2022-10-30T14:10:01;6.78;;;3.28;;
41546;SDS011;27271;45.412;10.852;2022-10-30T14:20:31;10.13;;;3.42;;
41546;SDS011;27271;45.412;10.852;2022-10-30T14:24:19;11.27;;;3.65;;
41546;SDS011;27271;45.412;10.852;2022-10-30T14:27:42;6.03;;;3.00;;
41546;SDS011;27271;45.412;10.852;2022-10-30T14:31:17;4.32;;;2.88;;
41546;SDS011;27271;45.412;10.852;2022-10-30T14:48:47;9.85;;;5.55;;
41546;SDS011;27271;45.412;10.852;2022-10-30T14:52:18;6.90;;;4.38;;
41546;SDS011;27271;45.412;10.852;2022-10-30T15:11:26;9.27;;;4.00;;
41546;SDS011;27271;45.412;10.852;2022-10-30T15:15:11;8.93;;;4.38;;
41546;SDS011;27271;45.412;10.852;2022-10-30T15:18:36;14.15;;;5.63;;
41546;SDS011;27271;45.412;10.852;2022-10-30T15:22:00;18.98;;;7.07;;
41546;SDS011;27271;45.412;10.852;2022-10-30T15:25:23;62.28;;;16.70;;
41546;SDS011;27271;45.412;10.852;2022-10-30T15:28:49;38.45;;;10.68;;
41546;SDS011;27271;45.412;10.852;2022-10-30T15:32:16;28.90;;;9.15;;
41546;SDS011;27271;45.412;10.852;2022-10-30T15:35:40;17.65;;;5.53;;
41546;SDS011;27271;45.412;10.852;2022-10-30T15:39:11;75.13;;;12.88;;
41546;SDS011;27271;45.412;10.852;2022-10-30T15:42:35;36.10;;;6.85;;
41546;SDS011;27271;45.412;10.852;2022-10-30T15:45:59;24.58;;;6.78;;
41546;SDS011;27271;45.412;10.852;2022-10-30T15:52:56;12.00;;;4.00;;
41546;SDS011;27271;45.412;10.852;2022-10-30T16:00:25;10.35;;;4.35;;
41546;SDS011;27271;45.412;10.852;2022-10-30T16:03:51;8.02;;;3.83;;
41546;SDS011;27271;45.412;10.852;2022-10-30T16:07:16;12.75;;;4.78;;
41546;SDS011;27271;45.412;10.852;2022-10-30T16:10:41;13.25;;;4.93;;
41546;SDS011;27271;45.412;10.852;2022-10-30T16:14:11;9.57;;;4.25;;
41546;SDS011;27271;45.412;10.852;2022-10-30T16:17:36;12.18;;;5.07;;
41546;SDS011;27271;45.412;10.852;2022-10-30T16:21:03;8.77;;;4.13;;
41546;SDS011;27271;45.412;10.852;2022-10-30T16:24:31;14.55;;;4.63;;
41546;SDS011;27271;45.412;10.852;2022-10-30T16:27:54;11.40;;;4.07;;
41546;SDS011;27271;45.412;10.852;2022-10-30T16:31:17;7.72;;;3.95;;
41546;SDS011;27271;45.412;10.852;2022-10-30T16:34:41;13.30;;;4.30;;
41546;SDS011;27271;45.412;10.852;2022-10-30T16:38:04;8.77;;;4.05;;
41546;SDS011;27271;45.412;10.852;2022-10-30T16:41:26;12.32;;;4.40;;
41546;SDS011;27271;45.412;10.852;2022-10-30T16:48:38;11.02;;;3.90;;
41546;SDS011;27271;45.412;10.852;2022-10-30T16:52:15;9.65;;;4.35;;
41546;SDS011;27271;45.412;10.852;2022-10-30T16:55:47;12.45;;;4.05;;
41546;SDS011;27271;45.412;10.852;2022-10-30T16:59:11;12.27;;;4.63;;
41546;SDS011;27271;45.412;10.852;2022-10-30T17:02:40;9.65;;;4.05;;
41546;SDS011;27271;45.412;10.852;2022-10-30T17:09:50;9.00;;;4.32;;
41546;SDS011;27271;45.412;10.852;2022-10-30T17:16:56;11.40;;;5.50;;
41546;SDS011;27271;45.412;10.852;2022-10-30T17:20:26;9.60;;;4.75;;
41546;SDS011;27271;45.412;10.852;2022-10-30T17:23:55;15.90;;;5.35;;
41546;SDS011;27271;45.412;10.852;2022-10-30T17:27:25;11.65;;;4.40;;
41546;SDS011;27271;45.412;10.852;2022-10-30T17:35:11;10.88;;;4.88;;
41546;SDS011;27271;45.412;10.852;2022-10-30T17:38:39;13.85;;;4.70;;
41546;SDS011;27271;45.412;10.852;2022-10-30T17:42:02;12.82;;;5.18;;
41546;SDS011;27271;45.412;10.852;2022-10-30T17:45:25;10.95;;;4.60;;
41546;SDS011;27271;45.412;10.852;2022-10-30T17:48:48;12.77;;;5.03;;
41546;SDS011;27271;45.412;10.852;2022-10-30T17:52:15;12.63;;;5.10;;
41546;SDS011;27271;45.412;10.852;2022-10-30T17:59:05;11.98;;;4.15;;
41546;SDS011;27271;45.412;10.852;2022-10-30T18:02:28;12.82;;;4.05;;
41546;SDS011;27271;45.412;10.852;2022-10-30T18:05:50;7.22;;;3.50;;
41546;SDS011;27271;45.412;10.852;2022-10-30T18:09:13;8.30;;;3.50;;
41546;SDS011;27271;45.412;10.852;2022-10-30T18:12:35;9.68;;;4.13;;
41546;SDS011;27271;45.412;10.852;2022-10-30T18:15:57;7.40;;;3.97;;
41546;SDS011;27271;45.412;10.852;2022-10-30T18:19:19;9.30;;;4.13;;
41546;SDS011;27271;45.412;10.852;2022-10-30T18:22:41;5.60;;;3.42;;
41546;SDS011;27271;45.412;10.852;2022-10-30T18:26:04;11.68;;;4.20;;
41546;SDS011;27271;45.412;10.852;2022-10-30T18:29:26;9.38;;;4.13;;
41546;SDS011;27271;45.412;10.852;2022-10-30T18:32:49;7.88;;;3.80;;
41546;SDS011;27271;45.412;10.852;2022-10-30T18:36:12;8.70;;;4.07;;
41546;SDS011;27271;45.412;10.852;2022-10-30T18:39:35;11.10;;;4.53;;
41546;SDS011;27271;45.412;10.852;2022-10-30T18:43:02;11.20;;;5.15;;
41546;SDS011;27271;45.412;10.852;2022-10-30T18:46:24;7.53;;;4.30;;
41546;SDS011;27271;45.412;10.852;2022-10-30T18:49:46;12.63;;;5.13;;
41546;SDS011;27271;45.412;10.852;2022-10-30T18:53:11;11.23;;;5.10;;
41546;SDS011;27271;45.412;10.852;2022-10-30T18:56:37;10.38;;;5.47;;
41546;SDS011;27271;45.412;10.852;2022-10-30T18:59:59;9.35;;;5.50;;
41546;SDS011;27271;45.412;10.852;2022-10-30T19:03:24;14.05;;;6.50;;
41546;SDS011;27271;45.412;10.852;2022-10-30T19:06:46;13.07;;;5.57;;
41546;SDS011;27271;45.412;10.852;2022-10-30T19:10:08;20.13;;;6.55;;
41546;SDS011;27271;45.412;10.852;2022-10-30T19:13:30;22.73;;;8.68;;
41546;SDS011;27271;45.412;10.852;2022-10-30T19:16:52;23.20;;;10.50;;
41546;SDS011;27271;45.412;10.852;2022-10-30T19:20:14;15.35;;;8.00;;
41546;SDS011;27271;45.412;10.852;2022-10-30T19:23:36;14.07;;;7.03;;
41546;SDS011;27271;45.412;10.852;2022-10-30T19:26:58;18.27;;;8.07;;
41546;SDS011;27271;45.412;10.852;2022-10-30T19:30:21;14.73;;;7.15;;
41546;SDS011;27271;45.412;10.852;2022-10-30T19:33:44;11.20;;;5.80;;
41546;SDS011;27271;45.412;10.852;2022-10-30T19:37:13;12.65;;;6.32;;
41546;SDS011;27271;45.412;10.852;2022-10-30T19:40:35;10.95;;;5.82;;
41546;SDS011;27271;45.412;10.852;2022-10-30T19:43:58;12.88;;;5.85;;
41546;SDS011;27271;45.412;10.852;2022-10-30T19:47:20;13.27;;;7.00;;
41546;SDS011;27271;45.412;10.852;2022-10-30T19:50:43;13.98;;;6.28;;
41546;SDS011;27271;45.412;10.852;2022-10-30T19:54:06;13.23;;;5.85;;
41546;SDS011;27271;45.412;10.852;2022-10-30T19:57:28;14.77;;;5.75;;
41546;SDS011;27271;45.412;10.852;2022-10-30T20:00:50;9.98;;;5.55;;
41546;SDS011;27271;45.412;10.852;2022-10-30T20:04:14;13.88;;;5.80;;
41546;SDS011;27271;45.412;10.852;2022-10-30T20:07:36;11.80;;;5.68;;
41546;SDS011;27271;45.412;10.852;2022-10-30T20:10:58;14.30;;;6.20;;
41546;SDS011;27271;45.412;10.852;2022-10-30T20:14:22;11.40;;;6.03;;
41546;SDS011;27271;45.412;10.852;2022-10-30T20:17:45;17.52;;;6.18;;
41546;SDS011;27271;45.412;10.852;2022-10-30T20:21:08;10.27;;;5.55;;
41546;SDS011;27271;45.412;10.852;2022-10-30T20:24:32;13.88;;;5.70;;
41546;SDS011;27271;45.412;10.852;2022-10-30T20:28:01;15.57;;;6.20;;
41546;SDS011;27271;45.412;10.852;2022-10-30T20:31:31;9.77;;;5.32;;
41546;SDS011;27271;45.412;10.852;2022-10-30T20:34:53;12.40;;;6.05;;
41546;SDS011;27271;45.412;10.852;2022-10-30T20:38:17;16.65;;;5.88;;
41546;SDS011;27271;45.412;10.852;2022-10-30T20:41:40;13.27;;;5.80;;
41546;SDS011;27271;45.412;10.852;2022-10-30T20:45:03;12.25;;;6.25;;
41546;SDS011;27271;45.412;10.852;2022-10-30T20:48:26;10.68;;;5.10;;
41546;SDS011;27271;45.412;10.852;2022-10-30T20:51:48;12.07;;;6.38;;
41546;SDS011;27271;45.412;10.852;2022-10-30T20:55:11;14.32;;;5.78;;
41546;SDS011;27271;45.412;10.852;2022-10-30T20:58:33;14.93;;;6.70;;
41546;SDS011;27271;45.412;10.852;2022-10-30T21:01:55;15.05;;;7.22;;
41546;SDS011;27271;45.412;10.852;2022-10-30T21:05:17;18.50;;;6.65;;
41546;SDS011;27271;45.412;10.852;2022-10-30T21:08:59;13.30;;;7.03;;
41546;SDS011;27271;45.412;10.852;2022-10-30T21:12:21;15.25;;;7.18;;
41546;SDS011;27271;45.412;10.852;2022-10-30T21:15:43;15.57;;;6.90;;
41546;SDS011;27271;45.412;10.852;2022-10-30T21:19:05;13.90;;;6.43;;
41546;SDS011;27271;45.412;10.852;2022-10-30T21:22:28;15.80;;;6.30;;
41546;SDS011;27271;45.412;10.852;2022-10-30T21:25:56;15.40;;;6.70;;
41546;SDS011;27271;45.412;10.852;2022-10-30T21:29:22;17.58;;;6.32;;
41546;SDS011;27271;45.412;10.852;2022-10-30T21:32:44;15.02;;;6.80;;
41546;SDS011;27271;45.412;10.852;2022-10-30T21:36:07;12.65;;;6.47;;
41546;SDS011;27271;45.412;10.852;2022-10-30T21:39:34;16.08;;;7.30;;
41546;SDS011;27271;45.412;10.852;2022-10-30T21:42:56;13.98;;;6.15;;
41546;SDS011;27271;45.412;10.852;2022-10-30T21:46:25;13.68;;;6.10;;
41546;SDS011;27271;45.412;10.852;2022-10-30T21:49:49;16.70;;;6.88;;
41546;SDS011;27271;45.412;10.852;2022-10-30T21:53:12;13.68;;;6.40;;
41546;SDS011;27271;45.412;10.852;2022-10-30T21:56:34;17.00;;;6.40;;
41546;SDS011;27271;45.412;10.852;2022-10-30T21:59:56;11.38;;;6.32;;
41546;SDS011;27271;45.412;10.852;2022-10-30T22:03:27;14.02;;;6.75;;
41546;SDS011;27271;45.412;10.852;2022-10-30T22:06:49;15.95;;;6.93;;
41546;SDS011;27271;45.412;10.852;2022-10-30T22:10:11;13.25;;;6.22;;
41546;SDS011;27271;45.412;10.852;2022-10-30T22:13:33;12.90;;;6.20;;
41546;SDS011;27271;45.412;10.852;2022-10-30T22:16:56;16.75;;;7.55;;
41546;SDS011;27271;45.412;10.852;2022-10-30T22:20:18;13.10;;;6.57;;
41546;SDS011;27271;45.412;10.852;2022-10-30T22:23:40;15.23;;;6.28;;
41546;SDS011;27271;45.412;10.852;2022-10-30T22:27:02;16.13;;;6.82;;
41546;SDS011;27271;45.412;10.852;2022-10-30T22:30:24;14.85;;;7.00;;
41546;SDS011;27271;45.412;10.852;2022-10-30T22:33:47;17.75;;;6.75;;
41546;SDS011;27271;45.412;10.852;2022-10-30T22:37:09;14.30;;;7.13;;
41546;SDS011;27271;45.412;10.852;2022-10-30T22:40:31;14.95;;;7.28;;
41546;SDS011;27271;45.412;10.852;2022-10-30T22:43:53;15.45;;;6.82;;
41546;SDS011;27271;45.412;10.852;2022-10-30T22:47:16;13.05;;;6.70;;
41546;SDS011;27271;45.412;10.852;2022-10-30T22:50:38;14.43;;;6.47;;
41546;SDS011;27271;45.412;10.852;2022-10-30T22:54:01;16.27;;;7.15;;
41546;SDS011;27271;45.412;10.852;2022-10-30T22:57:24;10.48;;;6.07;;